createdAt,value
2023-03-22T00:00:48.293Z,2.80
2023-03-22T00:03:20.486Z,2.77
2023-03-22T00:05:57.256Z,2.60
2023-03-22T00:08:28.974Z,3.30
2023-03-22T00:11:00.735Z,3.13
2023-03-22T00:13:35.630Z,2.93
2023-03-22T00:16:08.004Z,2.90
2023-03-22T00:18:40.396Z,2.90
2023-03-22T00:21:14.127Z,2.87
2023-03-22T00:23:46.289Z,3.13
2023-03-22T00:26:18.012Z,3.20
2023-03-22T00:28:49.833Z,2.77
2023-03-22T00:31:21.648Z,3.13
2023-03-22T00:33:53.381Z,3.07
2023-03-22T00:36:25.130Z,2.90
2023-03-22T00:38:57.168Z,3.37
2023-03-22T00:41:28.873Z,2.87
2023-03-22T00:44:00.624Z,2.97
2023-03-22T00:46:32.424Z,3.03
2023-03-22T00:49:04.376Z,3.10
2023-03-22T00:51:36.466Z,2.70
2023-03-22T00:54:08.272Z,2.93
2023-03-22T00:56:40.018Z,3.33
2023-03-22T00:59:17.268Z,2.90
2023-03-22T01:01:49.053Z,2.60
2023-03-22T01:04:26.089Z,3.67
2023-03-22T01:07:03.540Z,3.23
2023-03-22T01:09:35.607Z,2.50
2023-03-22T01:12:07.353Z,3.00
2023-03-22T01:14:39.929Z,2.73
2023-03-22T01:17:12.131Z,2.80
2023-03-22T01:19:43.880Z,2.13
2023-03-22T01:22:15.724Z,2.77
2023-03-22T01:24:49.789Z,2.57
2023-03-22T01:27:21.527Z,2.93
2023-03-22T01:29:53.240Z,2.30
2023-03-22T01:32:25.538Z,2.40
2023-03-22T01:34:57.408Z,2.80
2023-03-22T01:37:32.567Z,2.57
2023-03-22T01:40:05.534Z,2.80
2023-03-22T01:42:38.981Z,2.20
2023-03-22T01:45:14.182Z,2.57
2023-03-22T01:47:52.173Z,2.53
2023-03-22T01:50:25.783Z,2.40
2023-03-22T01:52:58.773Z,2.33
2023-03-22T01:55:35.274Z,2.60
2023-03-22T01:58:30.904Z,2.90
2023-03-22T02:01:07.845Z,2.77
2023-03-22T02:04:03.045Z,2.47
2023-03-22T02:06:40.038Z,2.43
2023-03-22T02:09:18.296Z,2.83
2023-03-22T02:12:06.368Z,3.10
2023-03-22T02:15:22.133Z,2.60
2023-03-22T02:18:38.579Z,2.70
2023-03-22T02:21:35.477Z,3.00
2023-03-22T02:24:19.144Z,2.60
2023-03-22T02:27:22.430Z,2.83
2023-03-22T02:29:59.974Z,2.80
2023-03-22T02:32:50.689Z,2.73
2023-03-22T02:35:43.606Z,2.43
2023-03-22T02:38:46.356Z,2.87
2023-03-22T02:41:18.228Z,2.87
2023-03-22T02:44:01.623Z,2.93
2023-03-22T02:47:01.998Z,2.77
2023-03-22T02:49:49.389Z,2.43
2023-03-22T02:52:43.124Z,2.83
2023-03-22T02:55:41.774Z,2.40
2023-03-22T02:58:25.453Z,3.10
2023-03-22T03:01:03.124Z,2.77
2023-03-22T03:03:37.805Z,2.90
2023-03-22T03:06:18.016Z,3.03
2023-03-22T03:08:51.485Z,2.73
2023-03-22T03:11:23.979Z,2.97
2023-03-22T03:13:56.236Z,3.10
2023-03-22T03:16:30.782Z,3.00
2023-03-22T03:19:20.304Z,3.20
2023-03-22T03:22:22.006Z,3.20
2023-03-22T03:25:02.145Z,3.37
2023-03-22T03:27:49.741Z,2.93
2023-03-22T03:30:30.748Z,2.50
2023-03-22T03:33:09.295Z,2.80
2023-03-22T03:35:53.362Z,3.07
2023-03-22T03:38:29.681Z,3.30
2023-03-22T03:41:09.150Z,2.87
2023-03-22T03:43:42.574Z,2.50
2023-03-22T03:46:14.970Z,2.90
2023-03-22T03:48:49.861Z,3.03
2023-03-22T03:51:21.600Z,2.60
2023-03-22T03:53:53.346Z,3.00
2023-03-22T03:56:26.417Z,3.00
2023-03-22T03:58:59.520Z,3.50
2023-03-22T04:01:31.811Z,3.67
2023-03-22T04:04:18.128Z,3.73
2023-03-22T04:06:58.131Z,3.50
2023-03-22T04:09:36.233Z,4.10
2023-03-22T04:12:32.506Z,3.47
2023-03-22T04:15:22.094Z,3.43
2023-03-22T04:17:58.766Z,3.50
2023-03-22T04:20:33.393Z,3.90
2023-03-22T04:23:05.124Z,3.70
2023-03-22T04:25:37.977Z,3.50
2023-03-22T04:28:14.235Z,3.40
2023-03-22T04:30:52.359Z,3.20
2023-03-22T04:33:56.375Z,3.70
2023-03-22T04:36:39.554Z,4.53
2023-03-22T04:39:33.919Z,3.53
2023-03-22T04:42:35.971Z,3.70
2023-03-22T04:45:29.180Z,3.93
2023-03-22T04:48:07.835Z,4.03
2023-03-22T04:50:41.199Z,3.90
2023-03-22T04:53:13.398Z,3.80
2023-03-22T04:55:46.141Z,4.00
2023-03-22T04:58:22.063Z,4.50
2023-03-22T05:00:54.385Z,4.10
2023-03-22T05:03:27.539Z,4.17
2023-03-22T05:06:01.507Z,3.80
2023-03-22T05:08:43.539Z,3.53
2023-03-22T05:11:17.422Z,4.60
2023-03-22T05:13:58.159Z,3.83
2023-03-22T05:16:31.439Z,3.37
2023-03-22T05:19:03.464Z,4.40
2023-03-22T05:21:36.894Z,3.77
2023-03-22T05:24:11.229Z,3.67
2023-03-22T05:26:44.335Z,4.10
2023-03-22T05:29:17.633Z,3.83
2023-03-22T05:32:06.242Z,4.30
2023-03-22T05:34:38.877Z,3.80
2023-03-22T05:37:22.304Z,3.77
2023-03-22T05:39:59.991Z,3.57
2023-03-22T05:42:40.273Z,3.80
2023-03-22T05:45:21.380Z,3.30
2023-03-22T05:48:00.964Z,3.77
2023-03-22T05:50:34.882Z,4.13
2023-03-22T05:53:07.572Z,4.90
2023-03-22T05:55:52.876Z,4.03
2023-03-22T05:58:25.045Z,6.50
2023-03-22T06:01:01.519Z,5.90
2023-03-22T06:03:49.013Z,5.10
2023-03-22T06:06:34.193Z,4.27
2023-03-22T06:09:17.570Z,4.40
2023-03-22T06:11:53.352Z,4.33
2023-03-22T06:14:25.133Z,4.43
2023-03-22T06:17:12.459Z,4.77
2023-03-22T06:19:45.503Z,4.80
2023-03-22T06:22:19.005Z,5.10
2023-03-22T06:24:51.602Z,4.50
2023-03-22T06:27:33.660Z,5.23
2023-03-22T06:30:06.321Z,4.90
2023-03-22T06:32:46.157Z,4.17
2023-03-22T06:35:18.882Z,4.63
2023-03-22T06:37:51.330Z,4.37
2023-03-22T06:40:23.815Z,4.67
2023-03-22T06:42:55.725Z,4.57
2023-03-22T06:45:27.495Z,4.13
2023-03-22T06:47:59.813Z,4.97
2023-03-22T06:50:47.084Z,5.20
2023-03-22T06:53:39.131Z,4.87
2023-03-22T06:56:11.261Z,4.37
2023-03-22T06:58:54.567Z,4.40
2023-03-22T07:01:26.543Z,4.80
2023-03-22T07:03:58.908Z,5.20
2023-03-22T07:06:32.595Z,4.13
2023-03-22T07:09:04.374Z,5.30
2023-03-22T07:11:39.511Z,5.13
2023-03-22T07:14:11.352Z,5.17
2023-03-22T07:16:56.849Z,4.50
2023-03-22T07:19:29.444Z,5.53
2023-03-22T07:22:02.525Z,4.83
2023-03-22T07:24:36.036Z,4.90
2023-03-22T07:27:08.937Z,4.97
2023-03-22T07:29:41.239Z,5.30
2023-03-22T07:32:13.079Z,5.67
2023-03-22T07:34:59.680Z,5.57
2023-03-22T07:37:31.739Z,5.73
2023-03-22T07:40:04.967Z,5.17
2023-03-22T07:42:37.152Z,4.93
2023-03-22T07:45:26.627Z,4.97
2023-03-22T07:48:18.308Z,4.90
2023-03-22T07:51:22.610Z,4.80
2023-03-22T07:53:54.375Z,5.20
2023-03-22T07:56:26.265Z,5.33
2023-03-22T07:58:58.363Z,5.00
2023-03-22T08:01:30.199Z,5.33
2023-03-22T08:04:22.445Z,5.03
2023-03-22T08:07:02.025Z,5.93
2023-03-22T08:09:33.777Z,5.43
2023-03-22T08:12:07.109Z,6.13
2023-03-22T08:14:40.092Z,5.10
2023-03-22T08:17:19.371Z,6.03
2023-03-22T08:19:52.098Z,5.87
2023-03-22T08:22:29.658Z,5.80
2023-03-22T08:25:24.426Z,5.00
2023-03-22T08:27:57.250Z,5.10
2023-03-22T08:30:31.912Z,5.13
2023-03-22T08:33:04.368Z,5.40
2023-03-22T08:35:37.237Z,6.30
2023-03-22T08:38:09.086Z,5.30
2023-03-22T08:40:49.284Z,5.57
2023-03-22T08:43:25.874Z,5.10
2023-03-22T08:45:58.296Z,5.40
2023-03-22T08:48:30.821Z,5.37
2023-03-22T08:51:13.983Z,4.80
2023-03-22T08:54:00.236Z,5.27
2023-03-22T08:56:50.614Z,5.63
2023-03-22T08:59:42.629Z,4.77
2023-03-22T09:02:40.933Z,5.77
2023-03-22T09:05:13.700Z,5.83
2023-03-22T09:07:46.848Z,5.90
2023-03-22T09:10:30.244Z,5.70
2023-03-22T09:13:02.054Z,5.00
2023-03-22T09:15:34.096Z,4.93
2023-03-22T09:18:22.413Z,5.00
2023-03-22T09:20:54.220Z,5.03
2023-03-22T09:23:32.175Z,5.30
2023-03-22T09:26:07.492Z,5.50
2023-03-22T09:28:40.832Z,4.87
2023-03-22T09:31:14.079Z,5.33
2023-03-22T09:33:46.276Z,4.80
2023-03-22T09:36:18.111Z,5.00
2023-03-22T09:38:50.075Z,9.43
2023-03-22T09:41:50.545Z,4.33
2023-03-22T09:44:29.218Z,4.40
2023-03-22T09:47:04.031Z,4.07
2023-03-22T09:49:53.057Z,3.47
2023-03-22T09:52:25.996Z,4.07
2023-03-22T09:54:59.435Z,2.20
2023-03-22T09:57:37.515Z,3.87
2023-03-22T10:00:22.659Z,2.23
2023-03-22T10:03:06.325Z,1.60
2023-03-22T10:05:53.144Z,1.80
2023-03-22T10:08:59.642Z,2.30
2023-03-22T10:11:39.212Z,1.30
2023-03-22T10:14:11.024Z,1.53
2023-03-22T10:16:44.587Z,1.97
2023-03-22T10:19:31.513Z,1.57
2023-03-22T10:22:05.959Z,1.53
2023-03-22T10:24:41.933Z,2.10
2023-03-22T10:27:19.351Z,1.70
2023-03-22T10:29:56.925Z,2.33
2023-03-22T10:32:51.077Z,2.20
2023-03-22T10:35:29.612Z,1.77
2023-03-22T10:38:05.034Z,1.60
2023-03-22T10:40:40.554Z,2.00
2023-03-22T10:43:18.557Z,1.77
2023-03-22T10:45:53.633Z,2.10
2023-03-22T10:48:28.227Z,1.67
2023-03-22T10:51:01.426Z,2.20
2023-03-22T10:53:43.798Z,1.53
2023-03-22T10:56:20.157Z,1.80
2023-03-22T10:58:52.520Z,2.30
2023-03-22T11:01:33.348Z,1.77
2023-03-22T11:04:14.719Z,1.30
2023-03-22T11:06:56.086Z,1.50
2023-03-22T11:09:28.102Z,1.70
2023-03-22T11:12:01.088Z,1.30
2023-03-22T11:14:36.725Z,1.23
2023-03-22T11:17:22.494Z,1.50
2023-03-22T11:20:09.860Z,1.17
2023-03-22T11:22:44.967Z,1.67
2023-03-22T11:25:29.147Z,1.30
2023-03-22T11:28:03.904Z,1.77
2023-03-22T11:30:36.865Z,1.13
2023-03-22T11:33:08.662Z,1.30
2023-03-22T11:35:45.389Z,1.40
2023-03-22T11:38:45.655Z,1.30
2023-03-22T11:41:25.197Z,1.30
2023-03-22T11:44:06.450Z,1.13
2023-03-22T11:46:38.796Z,1.33
2023-03-22T11:49:16.758Z,1.33
2023-03-22T11:51:49.129Z,1.53
2023-03-22T11:54:30.540Z,1.20
2023-03-22T11:57:09.730Z,1.20
2023-03-22T11:59:56.857Z,1.37
2023-03-22T12:02:33.155Z,1.77
2023-03-22T12:05:27.505Z,1.73
2023-03-22T12:08:36.003Z,1.50
2023-03-22T12:11:27.535Z,1.33
2023-03-22T12:14:20.250Z,1.17
2023-03-22T12:17:20.636Z,0.90
2023-03-22T12:20:07.833Z,1.40
2023-03-22T12:22:45.595Z,1.10
2023-03-22T12:25:21.910Z,1.20
2023-03-22T12:27:57.074Z,1.00
2023-03-22T12:30:33.930Z,1.20
2023-03-22T12:33:39.692Z,0.80
2023-03-22T12:36:17.364Z,0.90
2023-03-22T12:38:56.617Z,1.40
2023-03-22T12:41:32.887Z,1.30
2023-03-22T12:44:33.018Z,1.03
2023-03-22T12:47:12.784Z,0.90
2023-03-22T12:50:09.771Z,1.30
2023-03-22T12:52:46.134Z,1.53
2023-03-22T12:55:33.908Z,1.40
2023-03-22T12:58:07.502Z,1.47
2023-03-22T13:00:53.696Z,1.17
2023-03-22T13:03:38.848Z,1.00
2023-03-22T13:06:31.853Z,1.07
2023-03-22T13:09:34.836Z,1.20
2023-03-22T13:12:18.502Z,0.90
2023-03-22T13:14:50.599Z,0.90
2023-03-22T13:17:25.766Z,1.10
2023-03-22T13:20:13.504Z,0.83
2023-03-22T13:22:48.196Z,1.03
2023-03-22T13:25:19.899Z,0.77
2023-03-22T13:27:54.510Z,1.20
2023-03-22T13:30:47.040Z,1.17
2023-03-22T13:33:24.832Z,0.80
2023-03-22T13:35:59.457Z,0.80
2023-03-22T13:38:35.101Z,1.03
2023-03-22T13:41:22.900Z,0.90
2023-03-22T13:43:57.264Z,0.60
2023-03-22T13:46:44.512Z,0.80
2023-03-22T13:49:44.720Z,0.57
2023-03-22T13:52:26.708Z,0.40
2023-03-22T13:54:58.851Z,0.50
2023-03-22T13:57:47.628Z,0.67
2023-03-22T14:00:31.410Z,0.60
2023-03-22T14:03:31.096Z,0.80
2023-03-22T14:06:09.668Z,0.57
2023-03-22T14:08:44.187Z,0.70
2023-03-22T14:11:25.299Z,0.53
2023-03-22T14:14:06.662Z,0.60
2023-03-22T14:16:51.613Z,0.60
2023-03-22T14:19:29.067Z,0.50
